Time;durP1;ratioP1;P1;durP2;ratioP2;P2;SDS_P1;SDS_P2;PMS_P1;PMS_P2;Temp;Humidity;BMP_temperature;BMP_pressure;BME280_temperature;BME280_humidity;BME280_pressure;Samples;Min_cycle;Max_cycle;Signal;HPM_P1;HPM_P2
2023/05/21 00:03:41;;;;;;;16.27;9.25;;;;;18.70;96140.00;;;;8403602;28;20318;-68
2023/05/21 00:07:45;;;;;;;13.05;9.10;;;;;18.60;96132.00;;;;8409737;28;20211;-68
2023/05/21 00:11:51;;;;;;;12.48;8.38;;;;;18.60;96131.00;;;;8405503;28;20720;-69
2023/05/21 00:16:00;;;;;;;13.45;9.70;;;;;18.60;96125.00;;;;8410440;28;20282;-68
2023/05/21 00:20:08;;;;;;;12.07;9.18;;;;;18.50;96123.00;;;;8413729;28;20580;-67
2023/05/21 00:24:18;;;;;;;16.70;9.60;;;;;18.50;96119.00;;;;8409418;28;20824;-66
2023/05/21 00:28:21;;;;;;;12.95;9.30;;;;;18.50;96108.00;;;;8376212;28;20214;-68
2023/05/21 00:32:24;;;;;;;13.23;8.82;;;;;18.50;96120.00;;;;8415277;28;20311;-69
2023/05/21 00:36:33;;;;;;;16.20;9.93;;;;;18.50;96114.00;;;;8405830;28;20258;-68
2023/05/21 00:40:40;;;;;;;15.80;10.07;;;;;18.50;96111.00;;;;8431963;28;20205;-68
2023/05/21 00:44:48;;;;;;;14.80;9.45;;;;;18.40;96113.00;;;;8401936;28;20283;-66
2023/05/21 00:48:52;;;;;;;14.43;10.65;;;;;18.40;96118.00;;;;8417543;28;20330;-69
2023/05/21 00:52:58;;;;;;;17.77;10.48;;;;;18.40;96110.00;;;;8422090;28;20638;-69
2023/05/21 00:57:04;;;;;;;14.07;10.73;;;;;18.30;96109.00;;;;8422043;28;20219;-68
2023/05/21 01:01:12;;;;;;;15.90;9.75;;;;;18.30;96113.00;;;;8410207;28;20196;-67
2023/05/21 01:05:16;;;;;;;13.35;9.75;;;;;18.20;96109.00;;;;8412720;28;20230;-71
2023/05/21 01:09:22;;;;;;;14.20;10.00;;;;;18.20;96111.00;;;;8411245;28;20207;-67
2023/05/21 01:13:26;;;;;;;14.82;9.77;;;;;18.20;96106.00;;;;8412507;28;20214;-68
2023/05/21 01:17:30;;;;;;;12.70;9.80;;;;;18.20;96104.00;;;;8398981;28;20323;-68
2023/05/21 01:21:38;;;;;;;15.77;10.13;;;;;18.20;96107.00;;;;8416484;28;20206;-69
2023/05/21 01:25:43;;;;;;;14.35;10.13;;;;;18.20;96095.00;;;;8411353;28;20195;-69
2023/05/21 01:29:46;;;;;;;15.25;10.60;;;;;18.10;96091.00;;;;8409273;28;20286;-68
2023/05/21 01:33:54;;;;;;;16.73;10.55;;;;;18.10;96092.00;;;;8405246;28;20199;-67
2023/05/21 01:38:07;;;;;;;15.38;10.20;;;;;18.10;96094.00;;;;8407765;28;20211;-68
2023/05/21 01:42:13;;;;;;;19.27;10.00;;;;;18.10;96094.00;;;;8412773;28;20689;-69
2023/05/21 01:46:21;;;;;;;26.45;10.90;;;;;18.10;96099.00;;;;8411619;28;20279;-68
2023/05/21 01:50:30;;;;;;;23.95;10.93;;;;;18.10;96089.00;;;;8410137;28;20200;-68
2023/05/21 01:54:34;;;;;;;15.48;10.45;;;;;18.10;96091.00;;;;8415761;28;20202;-68
2023/05/21 01:58:45;;;;;;;15.77;10.82;;;;;18.10;96083.00;;;;8411675;28;20260;-68
2023/05/21 02:02:55;;;;;;;18.25;11.13;;;;;18.10;96081.00;;;;8417269;28;20226;-68
2023/05/21 02:07:02;;;;;;;19.67;11.13;;;;;18.00;96085.00;;;;8413373;28;20196;-68
2023/05/21 02:11:05;;;;;;;14.07;11.23;;;;;17.90;96078.00;;;;8410485;28;20197;-68
2023/05/21 02:15:10;;;;;;;18.90;11.73;;;;;17.90;96078.00;;;;8421760;28;20230;-69
2023/05/21 02:19:15;;;;;;;16.75;11.05;;;;;17.80;96083.00;;;;8403084;28;20689;-67
2023/05/21 02:23:19;;;;;;;20.75;11.85;;;;;17.80;96080.00;;;;8413258;28;20206;-68
2023/05/21 02:27:27;;;;;;;18.42;11.98;;;;;17.70;96081.00;;;;8415089;28;20304;-68
2023/05/21 02:31:32;;;;;;;17.08;11.13;;;;;17.60;96080.00;;;;8412155;28;20303;-69
2023/05/21 02:35:40;;;;;;;16.40;11.05;;;;;17.50;96073.00;;;;8399512;28;20210;-68
2023/05/21 02:39:43;;;;;;;16.90;11.55;;;;;17.40;96078.00;;;;8418447;28;20669;-68
2023/05/21 02:43:48;;;;;;;18.52;12.05;;;;;17.30;96077.00;;;;8398984;28;20203;-67
2023/05/21 02:47:54;;;;;;;17.05;10.73;;;;;17.20;96074.00;;;;8410211;28;20192;-69
2023/05/21 02:51:57;;;;;;;17.77;11.32;;;;;17.10;96076.00;;;;8419539;28;20191;-71
2023/05/21 02:56:00;;;;;;;16.77;11.70;;;;;17.00;96076.00;;;;8421347;28;20294;-68
2023/05/21 03:04:27;;;;;;;18.45;11.55;;;;;16.80;96077.00;;;;8324629;22;20837;-70
2023/05/21 03:08:30;;;;;;;16.65;12.18;;;;;16.70;96073.00;;;;8285083;28;20218;-70
2023/05/21 03:12:33;;;;;;;17.88;11.82;;;;;16.60;96075.00;;;;8309242;28;20206;-69
2023/05/21 03:16:40;;;;;;;17.42;11.90;;;;;16.50;96070.00;;;;8296103;28;20205;-71
2023/05/21 03:20:46;;;;;;;21.10;12.05;;;;;16.40;96072.00;;;;8308995;28;20311;-71
2023/05/21 03:24:52;;;;;;;22.75;13.02;;;;;16.30;96066.00;;;;8307540;28;20211;-70
2023/05/21 03:28:56;;;;;;;22.88;12.55;;;;;16.30;96076.00;;;;8306616;28;20233;-71
2023/05/21 03:33:02;;;;;;;24.13;13.07;;;;;16.30;96071.00;;;;8304876;28;20308;-70
2023/05/21 03:37:06;;;;;;;19.42;13.43;;;;;16.30;96068.00;;;;8308040;28;20634;-69
2023/05/21 03:41:10;;;;;;;19.92;12.82;;;;;16.40;96073.00;;;;8305975;28;20269;-73
2023/05/21 03:45:14;;;;;;;21.08;12.75;;;;;16.50;96061.00;;;;8312419;28;20762;-68
2023/05/21 03:49:17;;;;;;;20.83;12.68;;;;;16.60;96071.00;;;;8306837;28;20207;-68
2023/05/21 03:53:24;;;;;;;23.85;12.48;;;;;16.70;96070.00;;;;8303198;28;20729;-68
2023/05/21 03:57:33;;;;;;;19.10;12.32;;;;;16.70;96066.00;;;;8309616;28;20202;-69
2023/05/21 04:01:37;;;;;;;17.83;11.65;;;;;16.80;96064.00;;;;8283816;28;20289;-68
2023/05/21 04:05:41;;;;;;;20.33;12.73;;;;;16.90;96065.00;;;;8279905;28;20209;-68
2023/05/21 04:09:48;;;;;;;18.90;12.52;;;;;17.00;96066.00;;;;8268815;28;20197;-68
2023/05/21 04:13:57;;;;;;;20.02;12.07;;;;;17.10;96065.00;;;;8272838;28;20202;-68
2023/05/21 04:18:00;;;;;;;21.88;12.43;;;;;17.10;96060.00;;;;8275347;28;20316;-71
2023/05/21 04:22:03;;;;;;;20.70;11.70;;;;;17.20;96058.00;;;;8271012;28;20334;-69
2023/05/21 04:26:08;;;;;;;17.10;11.90;;;;;17.30;96060.00;;;;8286166;28;20233;-69
2023/05/21 04:30:12;;;;;;;22.27;12.32;;;;;17.40;96064.00;;;;8283041;28;20532;-67
2023/05/21 04:34:16;;;;;;;18.92;12.55;;;;;17.50;96063.00;;;;8264623;28;20559;-69
2023/05/21 04:38:23;;;;;;;16.13;11.40;;;;;17.60;96063.00;;;;8287350;28;20234;-70
2023/05/21 04:42:28;;;;;;;19.83;11.65;;;;;17.70;96060.00;;;;8292019;28;20203;-71
2023/05/21 04:46:33;;;;;;;19.63;11.48;;;;;17.90;96072.00;;;;8293873;28;20887;-69
2023/05/21 04:50:40;;;;;;;18.25;11.48;;;;;18.30;96066.00;;;;8297333;28;20206;-69
2023/05/21 04:54:46;;;;;;;18.75;11.45;;;;;18.60;96072.00;;;;8271598;28;20205;-69
2023/05/21 04:58:57;;;;;;;18.63;10.80;;;;;18.80;96072.00;;;;8287384;28;20257;-69
2023/05/21 05:03:01;;;;;;;16.17;11.10;;;;;18.90;96073.00;;;;8279136;28;20238;-69
2023/05/21 05:07:07;;;;;;;21.25;11.32;;;;;19.00;96069.00;;;;8282640;28;20859;-68
2023/05/21 05:11:17;;;;;;;17.17;11.25;;;;;19.10;96077.00;;;;8271657;28;20296;-69
2023/05/21 05:15:26;;;;;;;15.50;10.65;;;;;19.20;96078.00;;;;8274555;28;20693;-69
2023/05/21 05:19:31;;;;;;;16.05;11.52;;;;;19.20;96075.00;;;;8269075;28;20784;-70
2023/05/21 05:23:39;;;;;;;15.40;10.27;;;;;19.30;96081.00;;;;8265472;28;20839;-69
2023/05/21 05:27:42;;;;;;;17.00;10.60;;;;;19.40;96078.00;;;;8263254;28;20213;-70
2023/05/21 05:31:47;;;;;;;15.27;10.38;;;;;19.60;96077.00;;;;8278770;28;20707;-68
2023/05/21 05:35:50;;;;;;;18.05;11.00;;;;;19.80;96081.00;;;;8287382;28;20296;-68
2023/05/21 05:39:56;;;;;;;15.30;10.85;;;;;20.10;96086.00;;;;8285174;28;20317;-69
2023/05/21 05:44:01;;;;;;;19.05;10.65;;;;;20.40;96084.00;;;;8280554;28;20249;-68
2023/05/21 05:48:07;;;;;;;16.35;11.13;;;;;20.70;96087.00;;;;8280576;28;20615;-68
2023/05/21 05:52:11;;;;;;;14.77;10.40;;;;;20.90;96088.00;;;;8286652;28;20198;-72
2023/05/21 05:56:15;;;;;;;13.75;10.50;;;;;21.10;96090.00;;;;8283831;28;20285;-70
2023/05/21 06:00:19;;;;;;;13.88;9.93;;;;;21.40;96087.00;;;;8270772;28;20233;-71
2023/05/21 06:04:23;;;;;;;13.75;10.80;;;;;21.70;96089.00;;;;8277510;28;20398;-66
2023/05/21 06:08:29;;;;;;;14.05;10.88;;;;;21.80;96092.00;;;;8270861;28;20204;-68
2023/05/21 06:12:32;;;;;;;13.65;10.63;;;;;21.70;96089.00;;;;8262179;28;20290;-67
2023/05/21 06:16:36;;;;;;;13.68;10.02;;;;;21.80;96082.00;;;;8271501;28;20234;-67
2023/05/21 06:20:42;;;;;;;15.25;9.88;;;;;22.00;96086.00;;;;8259495;28;20333;-68
2023/05/21 06:24:45;;;;;;;13.50;9.73;;;;;22.10;96094.00;;;;8258465;28;20234;-67
2023/05/21 06:29:07;;;;;;;23.50;10.52;;;;;22.20;96089.00;;;;8259931;28;20199;-67
2023/05/21 06:33:20;;;;;;;13.25;10.23;;;;;22.30;96088.00;;;;8261180;28;20285;-68
2023/05/21 06:37:38;;;;;;;15.35;10.15;;;;;22.50;96079.00;;;;8256473;28;20217;-67
2023/05/21 06:41:52;;;;;;;14.27;10.77;;;;;22.60;96088.00;;;;8261833;28;20623;-66
2023/05/21 06:46:00;;;;;;;14.07;10.75;;;;;22.90;96087.00;;;;8274700;28;20313;-66
2023/05/21 06:50:04;;;;;;;14.52;10.13;;;;;23.00;96089.00;;;;8273723;28;20229;-67
2023/05/21 07:00:11;;;;;;;13.55;9.52;;;;;23.70;96099.00;;;;8192096;28;20263;-66
2023/05/21 07:04:35;;;;;;;15.88;10.13;;;;;24.40;96099.00;;;;8255791;28;20280;-66
2023/05/21 07:14:08;;;;;;;13.90;9.77;;;;;24.80;96100.00;;;;8247622;28;20232;-72
2023/05/21 07:18:20;;;;;;;14.48;10.48;;;;;24.70;96094.00;;;;8250883;28;20206;-65
2023/05/21 07:43:13;;;;;;;17.52;10.60;;;;;24.40;96106.00;;;;8464647;27;21010;-64
2023/05/21 07:47:24;;;;;;;13.15;10.18;;;;;24.50;96108.00;;;;8473836;27;20658;-62
2023/05/21 07:51:31;;;;;;;12.02;10.13;;;;;24.80;96112.00;;;;8477735;27;21076;-64
2023/05/21 07:55:34;;;;;;;14.13;10.00;;;;;25.00;96103.00;;;;8475198;27;20782;-61
2023/05/21 07:59:43;;;;;;;15.82;10.23;;;;;25.10;96105.00;;;;8473127;27;20213;-62
2023/05/21 08:03:49;;;;;;;15.30;10.10;;;;;25.20;96106.00;;;;8470264;27;20222;-63
2023/05/21 08:07:55;;;;;;;13.02;9.90;;;;;25.40;96105.00;;;;8468143;27;20217;-63
2023/05/21 08:11:58;;;;;;;12.90;9.45;;;;;25.50;96110.00;;;;8469999;27;20279;-63
2023/05/21 08:16:03;;;;;;;15.15;9.65;;;;;25.50;96109.00;;;;8467364;27;20689;-61
2023/05/21 08:20:09;;;;;;;16.33;9.88;;;;;25.60;96112.00;;;;8469085;27;20583;-64
2023/05/21 08:24:12;;;;;;;11.25;9.43;;;;;26.00;96104.00;;;;8467406;27;20226;-61
2023/05/21 08:28:18;;;;;;;12.57;8.68;;;;;26.30;96116.00;;;;8467227;27;20253;-61
2023/05/21 08:32:22;;;;;;;11.15;8.75;;;;;26.80;96104.00;;;;8471344;27;20204;-63
2023/05/21 08:36:25;;;;;;;11.77;8.30;;;;;27.60;96114.00;;;;8448486;27;20195;-62
2023/05/21 08:40:30;;;;;;;13.95;8.88;;;;;28.50;96110.00;;;;8445570;28;20199;-62
2023/05/21 08:44:43;;;;;;;10.02;7.55;;;;;29.00;96113.00;;;;8444060;27;20264;-63
2023/05/21 08:48:50;;;;;;;10.30;7.82;;;;;29.30;96114.00;;;;8450779;28;20199;-64
2023/05/21 08:52:54;;;;;;;13.75;9.30;;;;;29.60;96122.00;;;;8439959;28;20191;-63
2023/05/21 08:56:59;;;;;;;10.73;8.63;;;;;30.00;96111.00;;;;8445198;28;20195;-66
2023/05/21 09:01:05;;;;;;;13.82;8.77;;;;;30.30;96113.00;;;;8442078;27;20201;-63
2023/05/21 09:05:10;;;;;;;11.88;8.77;;;;;30.90;96113.00;;;;8445264;28;20563;-61
2023/05/21 09:09:21;;;;;;;10.70;8.55;;;;;31.30;96110.00;;;;8447409;27;20597;-63
2023/05/21 09:13:26;;;;;;;10.60;8.13;;;;;31.60;96112.00;;;;8448377;27;20225;-67
2023/05/21 09:17:29;;;;;;;13.15;8.30;;;;;31.70;96115.00;;;;8444400;28;20720;-65
2023/05/21 09:21:41;;;;;;;10.10;7.75;;;;;32.00;96118.00;;;;8442606;27;20217;-62
2023/05/21 09:25:46;;;;;;;10.45;8.15;;;;;31.90;96112.00;;;;8436308;28;20365;-63
2023/05/21 09:29:49;;;;;;;8.35;7.50;;;;;32.30;96112.00;;;;8431130;28;20202;-63
2023/05/21 09:33:55;;;;;;;9.60;8.02;;;;;32.20;96118.00;;;;8437029;28;20198;-61
2023/05/21 09:38:03;;;;;;;9.77;8.20;;;;;32.30;96114.00;;;;8444172;28;20218;-61
2023/05/21 09:42:06;;;;;;;12.52;7.82;;;;;32.20;96114.00;;;;8440699;28;20204;-67
2023/05/21 09:46:15;;;;;;;9.30;7.50;;;;;31.80;96114.00;;;;8443966;28;21007;-65
2023/05/21 09:50:22;;;;;;;11.90;7.65;;;;;32.00;96112.00;;;;8437994;27;20202;-65
2023/05/21 09:54:32;;;;;;;18.85;13.77;;;;;31.80;96092.00;;;;8447911;28;20194;-63
2023/05/21 09:58:38;;;;;;;28.63;18.13;;;;;31.60;96096.00;;;;8436029;27;20719;-63
2023/05/21 10:02:46;;;;;;;16.65;11.00;;;;;31.50;96107.00;;;;8447201;27;20222;-65
2023/05/21 10:06:52;;;;;;;10.45;6.80;;;;;31.80;96097.00;;;;8446200;28;20314;-63
2023/05/21 10:11:00;;;;;;;9.73;7.00;;;;;32.00;96107.00;;;;8429347;28;20205;-63
2023/05/21 10:15:08;;;;;;;7.70;6.90;;;;;32.00;96101.00;;;;8449498;28;20740;-67
2023/05/21 10:19:15;;;;;;;10.45;7.35;;;;;32.50;96105.00;;;;8448396;28;20195;-64
2023/05/21 10:23:18;;;;;;;11.35;7.07;;;;;33.00;96103.00;;;;8449058;28;20294;-61
2023/05/21 10:27:23;;;;;;;11.00;6.82;;;;;33.00;96099.00;;;;8445448;28;20221;-65
2023/05/21 10:31:27;;;;;;;8.07;6.57;;;;;32.90;96107.00;;;;8447461;28;20198;-63
2023/05/21 10:35:31;;;;;;;8.00;7.20;;;;;33.20;96109.00;;;;8450518;28;20194;-62
2023/05/21 10:39:38;;;;;;;10.23;6.55;;;;;33.50;96096.00;;;;8448962;28;20962;-64
2023/05/21 10:43:55;;;;;;;8.13;6.38;;;;;33.80;96095.00;;;;8444402;28;20234;-62
2023/05/21 10:48:21;;;;;;;9.70;6.18;;;;;34.10;96085.00;;;;8436753;28;20195;-63
2023/05/21 10:52:44;;;;;;;8.82;6.35;;;;;34.10;96099.00;;;;8441824;28;20199;-63
2023/05/21 10:57:01;;;;;;;9.15;6.18;;;;;33.90;96103.00;;;;8442910;27;20746;-62
2023/05/21 11:01:08;;;;;;;6.45;5.78;;;;;33.70;96097.00;;;;8443274;27;20302;-62
2023/05/21 11:05:11;;;;;;;10.13;6.18;;;;;33.20;96095.00;;;;8444380;28;20754;-65
2023/05/21 11:09:15;;;;;;;7.18;6.28;;;;;33.00;96089.00;;;;8444486;28;20300;-63
2023/05/21 11:13:20;;;;;;;6.95;6.13;;;;;32.80;96099.00;;;;8445516;28;20332;-64
2023/05/21 11:17:40;;;;;;;8.73;5.82;;;;;32.70;96089.00;;;;8440292;28;20232;-63
2023/05/21 11:21:51;;;;;;;10.00;6.60;;;;;32.30;96101.00;;;;8444439;28;20500;-62
2023/05/21 11:26:01;;;;;;;11.75;6.10;;;;;32.00;96088.00;;;;8441891;28;20692;-65
2023/05/21 11:30:06;;;;;;;6.68;5.47;;;;;31.70;96092.00;;;;8441437;28;20286;-62
2023/05/21 11:34:20;;;;;;;9.80;6.43;;;;;31.60;96096.00;;;;8431136;28;20195;-64
2023/05/21 11:38:28;;;;;;;9.82;6.28;;;;;31.50;96104.00;;;;8443354;28;20259;-64
2023/05/21 11:42:32;;;;;;;10.98;6.05;;;;;31.30;96104.00;;;;8444412;28;20285;-64
2023/05/21 11:46:39;;;;;;;7.50;6.57;;;;;31.10;96088.00;;;;8438149;28;20309;-63
2023/05/21 11:50:48;;;;;;;7.15;5.95;;;;;30.90;96089.00;;;;8442297;28;20195;-64
2023/05/21 11:54:55;;;;;;;10.45;6.38;;;;;30.90;96101.00;;;;8438560;28;20290;-62
2023/05/21 11:59:02;;;;;;;10.95;6.68;;;;;30.90;96092.00;;;;8446861;28;20234;-62
2023/05/21 12:03:06;;;;;;;13.05;6.57;;;;;31.40;96095.00;;;;8439931;28;20322;-62
2023/05/21 12:07:21;;;;;;;9.70;6.38;;;;;31.50;96096.00;;;;8439230;28;20223;-66
2023/05/21 12:11:29;;;;;;;6.80;5.93;;;;;31.60;96092.00;;;;8442530;27;20210;-63
2023/05/21 12:15:32;;;;;;;10.32;6.47;;;;;31.90;96091.00;;;;8445473;27;20205;-63
2023/05/21 12:19:40;;;;;;;6.60;5.97;;;;;32.10;96089.00;;;;8442598;27;20203;-63
2023/05/21 12:23:44;;;;;;;8.25;6.38;;;;;32.50;96085.00;;;;8434867;28;20215;-63
2023/05/21 12:28:02;;;;;;;8.43;6.47;;;;;32.60;96095.00;;;;8449109;28;20226;-66
2023/05/21 12:32:08;;;;;;;10.35;6.50;;;;;32.50;96091.00;;;;8447392;27;20229;-66
2023/05/21 12:36:19;;;;;;;11.38;5.93;;;;;32.50;96097.00;;;;8436386;28;20298;-63
2023/05/21 12:40:35;;;;;;;12.35;6.53;;;;;32.60;96093.00;;;;8443807;27;20200;-62
2023/05/21 12:44:44;;;;;;;7.68;5.70;;;;;32.70;96095.00;;;;8434872;27;20230;-65
2023/05/21 12:48:53;;;;;;;7.93;6.20;;;;;32.40;96090.00;;;;8431205;28;20286;-63
2023/05/21 12:52:58;;;;;;;9.95;5.97;;;;;32.40;96098.00;;;;8432929;28;20378;-63
2023/05/21 12:57:19;;;;;;;9.98;6.30;;;;;32.20;96092.00;;;;8449413;27;20187;-64
2023/05/21 13:01:25;;;;;;;7.97;5.97;;;;;32.00;96088.00;;;;8443695;28;20203;-63
2023/05/21 13:05:29;;;;;;;7.07;6.15;;;;;31.80;96085.00;;;;8421314;28;20234;-62
2023/05/21 13:09:34;;;;;;;6.57;5.82;;;;;31.70;96095.00;;;;8444913;28;20192;-63
2023/05/21 13:13:40;;;;;;;7.05;6.32;;;;;31.70;96087.00;;;;8449681;27;20226;-63
2023/05/21 13:17:43;;;;;;;9.57;7.03;;;;;31.90;96080.00;;;;8435235;28;20199;-63
2023/05/21 13:21:51;;;;;;;6.90;6.13;;;;;32.00;96083.00;;;;8443104;28;20480;-62
2023/05/21 13:25:55;;;;;;;9.07;6.47;;;;;32.00;96085.00;;;;8446580;27;20313;-63
2023/05/21 13:29:59;;;;;;;14.15;6.15;;;;;32.00;96087.00;;;;8449006;28;20191;-64
2023/05/21 13:34:03;;;;;;;6.60;5.63;;;;;32.00;96080.00;;;;8429612;28;20249;-64
2023/05/21 13:38:07;;;;;;;7.50;6.25;;;;;32.40;96080.00;;;;8447447;28;20282;-63
2023/05/21 13:42:10;;;;;;;10.55;6.10;;;;;32.70;96075.00;;;;8451810;28;20231;-64
2023/05/21 13:46:15;;;;;;;8.23;5.93;;;;;33.20;96078.00;;;;8450077;28;21047;-63
2023/05/21 13:50:18;;;;;;;6.70;5.88;;;;;33.40;96081.00;;;;8450846;27;20197;-64
2023/05/21 13:54:24;;;;;;;7.13;6.00;;;;;33.50;96080.00;;;;8447649;28;20290;-64
2023/05/21 13:58:33;;;;;;;9.45;6.13;;;;;33.30;96076.00;;;;8448502;27;20742;-63
2023/05/21 14:02:37;;;;;;;6.85;5.70;;;;;33.00;96077.00;;;;8445687;27;20876;-63
2023/05/21 14:06:43;;;;;;;6.05;5.45;;;;;33.00;96078.00;;;;8443113;28;20258;-63
2023/05/21 14:10:48;;;;;;;8.40;6.13;;;;;32.80;96072.00;;;;8440398;28;20194;-63
2023/05/21 14:14:51;;;;;;;6.22;5.63;;;;;32.50;96074.00;;;;8446773;28;20213;-64
2023/05/21 14:19:03;;;;;;;6.63;5.93;;;;;32.20;96072.00;;;;8425018;27;20207;-63
2023/05/21 14:23:15;;;;;;;6.68;6.00;;;;;32.50;96072.00;;;;8419453;28;20560;-64
2023/05/21 14:27:19;;;;;;;7.88;6.00;;;;;32.60;96066.00;;;;8427994;27;20758;-64
2023/05/21 14:31:23;;;;;;;6.10;5.50;;;;;32.90;96068.00;;;;8445371;27;20198;-64
2023/05/21 14:35:32;;;;;;;10.60;5.60;;;;;33.10;96074.00;;;;8437301;28;20316;-66
2023/05/21 14:39:35;;;;;;;6.75;5.55;;;;;33.10;96068.00;;;;8434694;27;20194;-64
2023/05/21 14:43:39;;;;;;;6.68;5.97;;;;;33.40;96065.00;;;;8429214;28;20290;-63
2023/05/21 14:47:43;;;;;;;6.82;5.70;;;;;33.80;96055.00;;;;8439546;28;20226;-63
2023/05/21 14:51:48;;;;;;;8.90;6.05;;;;;34.00;96063.00;;;;8439848;28;20244;-65
2023/05/21 14:55:54;;;;;;;7.22;6.18;;;;;34.10;96064.00;;;;8433595;28;20199;-68
2023/05/21 15:00:00;;;;;;;6.18;5.55;;;;;33.90;96065.00;;;;8434606;27;20198;-64
2023/05/21 15:04:07;;;;;;;6.10;5.50;;;;;34.00;96068.00;;;;8444836;28;20253;-64
2023/05/21 15:08:12;;;;;;;7.70;6.13;;;;;33.80;96069.00;;;;8425906;28;20805;-66
2023/05/21 15:12:15;;;;;;;6.15;5.38;;;;;33.70;96076.00;;;;8442822;27;20831;-64
2023/05/21 15:16:18;;;;;;;7.20;5.68;;;;;33.70;96070.00;;;;8445329;28;20218;-65
2023/05/21 15:20:23;;;;;;;8.80;5.57;;;;;33.70;96058.00;;;;8444067;28;20655;-66
2023/05/21 15:24:28;;;;;;;5.53;5.03;;;;;33.80;96060.00;;;;8444131;28;20190;-63
2023/05/21 15:28:33;;;;;;;5.88;5.32;;;;;33.80;96057.00;;;;8440619;28;20677;-64
2023/05/21 15:32:39;;;;;;;7.40;5.80;;;;;33.70;96050.00;;;;8437947;28;20191;-63
2023/05/21 15:36:45;;;;;;;7.10;5.63;;;;;33.90;96054.00;;;;8442597;28;20194;-64
2023/05/21 15:40:51;;;;;;;7.05;5.20;;;;;34.20;96047.00;;;;8424826;28;20743;-62
2023/05/21 15:44:56;;;;;;;7.50;6.13;;;;;34.30;96047.00;;;;8424869;28;20199;-64
2023/05/21 15:49:04;;;;;;;8.48;5.40;;;;;34.60;96042.00;;;;8433501;27;20230;-67
2023/05/21 15:53:07;;;;;;;6.03;5.07;;;;;34.60;96036.00;;;;8438143;27;20289;-62
2023/05/21 15:57:12;;;;;;;9.38;5.50;;;;;34.40;96040.00;;;;8434571;28;20197;-67
2023/05/21 16:01:15;;;;;;;7.45;5.05;;;;;34.10;96038.00;;;;8431960;27;20226;-66
2023/05/21 16:05:21;;;;;;;6.32;5.55;;;;;33.90;96043.00;;;;8419144;28;20217;-64
2023/05/21 16:09:26;;;;;;;6.60;5.88;;;;;33.90;96034.00;;;;8427317;27;20333;-63
2023/05/21 16:13:33;;;;;;;5.97;5.38;;;;;33.90;96030.00;;;;8425683;27;20199;-64
2023/05/21 16:17:36;;;;;;;11.25;5.63;;;;;33.90;96027.00;;;;8422319;28;20241;-64
2023/05/21 16:21:42;;;;;;;8.02;5.32;;;;;34.00;96036.00;;;;8409867;27;20244;-64
2023/05/21 16:25:47;;;;;;;7.18;5.85;;;;;33.80;96026.00;;;;8436573;27;20223;-63
2023/05/21 16:29:54;;;;;;;8.38;6.05;;;;;33.60;96029.00;;;;8431306;28;20282;-63
2023/05/21 16:34:00;;;;;;;9.45;5.97;;;;;33.40;96025.00;;;;8437822;27;20277;-65
2023/05/21 16:38:03;;;;;;;7.55;5.68;;;;;33.30;96024.00;;;;8427502;28;20283;-64
2023/05/21 16:42:09;;;;;;;6.65;5.90;;;;;33.40;96031.00;;;;8433974;27;20207;-63
2023/05/21 16:46:19;;;;;;;6.55;5.88;;;;;33.60;96029.00;;;;8430423;27;20734;-66
2023/05/21 16:50:23;;;;;;;7.22;5.80;;;;;33.70;96031.00;;;;8438936;28;20237;-63
2023/05/21 16:54:32;;;;;;;6.10;5.32;;;;;33.90;96027.00;;;;8424553;28;20202;-65
2023/05/21 16:58:52;;;;;;;7.97;5.30;;;;;33.80;96028.00;;;;8436087;28;20236;-65
2023/05/21 17:02:59;;;;;;;6.15;5.47;;;;;33.90;96026.00;;;;8439984;28;20295;-64
2023/05/21 17:07:02;;;;;;;6.65;5.72;;;;;33.80;96024.00;;;;8429236;27;20285;-66
2023/05/21 17:11:07;;;;;;;14.32;5.45;;;;;33.50;96023.00;;;;8435995;27;20214;-64
2023/05/21 17:15:10;;;;;;;6.32;5.35;;;;;33.40;96018.00;;;;8431577;27;20793;-63
2023/05/21 17:19:17;;;;;;;5.88;5.28;;;;;33.70;96020.00;;;;8415189;28;20196;-64
2023/05/21 17:23:23;;;;;;;5.97;5.32;;;;;33.70;96018.00;;;;8436943;28;20215;-66
2023/05/21 17:27:27;;;;;;;6.13;5.55;;;;;33.70;96023.00;;;;8428412;27;20222;-64
2023/05/21 17:31:31;;;;;;;5.78;5.25;;;;;33.70;96022.00;;;;8429685;28;20210;-64
2023/05/21 17:35:40;;;;;;;6.32;5.40;;;;;33.70;96028.00;;;;8423607;28;20661;-67
2023/05/21 17:39:44;;;;;;;5.43;4.93;;;;;33.70;96028.00;;;;8424359;27;20208;-63
2023/05/21 17:43:50;;;;;;;6.53;5.93;;;;;33.60;96033.00;;;;8411075;28;20802;-63
2023/05/21 17:47:54;;;;;;;7.78;5.45;;;;;33.40;96030.00;;;;8431032;28;20223;-63
2023/05/21 17:52:03;;;;;;;9.20;5.57;;;;;33.00;96037.00;;;;8439402;27;20206;-63
2023/05/21 17:56:09;;;;;;;7.53;5.32;;;;;32.40;96036.00;;;;8427968;27;20290;-64
2023/05/21 18:00:15;;;;;;;7.45;5.70;;;;;31.60;96040.00;;;;8436738;27;20231;-63
2023/05/21 18:04:19;;;;;;;8.32;5.88;;;;;30.70;96042.00;;;;8431831;28;20215;-65
2023/05/21 18:08:25;;;;;;;12.50;5.80;;;;;29.80;96038.00;;;;8435008;28;20240;-64
2023/05/21 18:12:29;;;;;;;6.03;5.32;;;;;29.10;96038.00;;;;8439462;28;20293;-65
2023/05/21 18:16:35;;;;;;;8.63;5.57;;;;;28.30;96032.00;;;;8432566;27;20293;-65
2023/05/21 18:20:42;;;;;;;6.55;5.75;;;;;27.60;96037.00;;;;8440477;27;20204;-66
2023/05/21 18:24:46;;;;;;;6.03;5.43;;;;;26.90;96032.00;;;;8427376;28;20337;-64
2023/05/21 18:28:51;;;;;;;9.75;6.07;;;;;26.20;96034.00;;;;8426406;27;20250;-63
2023/05/21 18:32:58;;;;;;;7.90;6.53;;;;;25.30;96036.00;;;;8432183;28;20183;-64
2023/05/21 18:37:04;;;;;;;11.27;6.32;;;;;24.70;96035.00;;;;8422200;27;21234;-64
2023/05/21 18:41:08;;;;;;;9.07;6.72;;;;;24.10;96035.00;;;;8429588;28;20207;-63
2023/05/21 18:45:15;;;;;;;9.40;6.40;;;;;23.60;96036.00;;;;8428576;27;20221;-64
2023/05/21 18:49:20;;;;;;;11.52;6.32;;;;;23.30;96031.00;;;;8423830;28;20224;-63
2023/05/21 18:53:25;;;;;;;9.15;6.28;;;;;23.00;96032.00;;;;8428449;28;20199;-64
2023/05/21 18:57:30;;;;;;;7.65;5.93;;;;;22.90;96039.00;;;;8412745;28;20203;-68
2023/05/21 19:01:35;;;;;;;7.75;6.03;;;;;22.80;96043.00;;;;8439577;27;20862;-64
2023/05/21 19:05:38;;;;;;;10.68;6.88;;;;;22.60;96045.00;;;;8433916;28;20279;-64
2023/05/21 19:09:43;;;;;;;17.33;6.32;;;;;22.30;96051.00;;;;8428395;28;20257;-67
2023/05/21 19:13:48;;;;;;;13.02;6.90;;;;;22.10;96061.00;;;;8431209;28;20275;-66
2023/05/21 19:17:51;;;;;;;8.65;6.45;;;;;21.80;96060.00;;;;8435759;28;20214;-66
2023/05/21 19:21:54;;;;;;;8.93;5.97;;;;;21.60;96060.00;;;;8426713;28;20286;-64
2023/05/21 19:26:01;;;;;;;9.88;6.28;;;;;21.50;96059.00;;;;8437613;28;21004;-64
2023/05/21 19:30:09;;;;;;;7.35;5.97;;;;;21.30;96063.00;;;;8418651;28;20232;-63
2023/05/21 19:34:14;;;;;;;9.52;6.78;;;;;21.30;96071.00;;;;8436256;28;20197;-66
2023/05/21 19:38:17;;;;;;;9.05;6.50;;;;;21.20;96071.00;;;;8405421;28;20582;-65
2023/05/21 19:42:22;;;;;;;10.80;6.75;;;;;21.20;96076.00;;;;8430222;28;20221;-64
2023/05/21 19:46:30;;;;;;;12.18;6.35;;;;;21.10;96075.00;;;;8421398;28;20195;-65
2023/05/21 19:50:34;;;;;;;9.13;6.28;;;;;21.10;96082.00;;;;8428419;28;20226;-65
2023/05/21 19:54:39;;;;;;;11.27;6.80;;;;;21.00;96081.00;;;;8428227;28;20268;-64
2023/05/21 19:58:46;;;;;;;12.10;6.63;;;;;20.90;96087.00;;;;8425906;28;20202;-65
2023/05/21 20:03:02;;;;;;;16.27;7.32;;;;;20.80;96088.00;;;;8432607;28;20318;-64
2023/05/21 20:07:05;;;;;;;13.20;6.85;;;;;20.70;96092.00;;;;8438698;28;20234;-64
2023/05/21 20:11:12;;;;;;;8.40;6.70;;;;;20.70;96089.00;;;;8440813;28;20243;-64
2023/05/21 20:15:17;;;;;;;9.55;6.82;;;;;20.60;96088.00;;;;8432980;28;20197;-64
2023/05/21 20:19:24;;;;;;;15.85;7.05;;;;;20.50;96094.00;;;;8436193;28;20195;-65
2023/05/21 20:23:28;;;;;;;8.68;7.13;;;;;20.50;96087.00;;;;8438282;28;20766;-63
2023/05/21 20:27:34;;;;;;;7.97;6.70;;;;;20.50;96086.00;;;;8432325;28;20218;-65
2023/05/21 20:31:37;;;;;;;8.82;7.20;;;;;20.40;96088.00;;;;8435533;28;20206;-64
2023/05/21 20:35:42;;;;;;;9.20;7.15;;;;;20.40;96089.00;;;;8445397;27;21017;-65
2023/05/21 20:39:47;;;;;;;11.23;7.05;;;;;20.40;96082.00;;;;8438385;27;20281;-64
2023/05/21 20:43:54;;;;;;;12.60;7.43;;;;;20.40;96094.00;;;;8444794;27;20666;-64
2023/05/21 20:48:03;;;;;;;11.23;7.47;;;;;20.30;96091.00;;;;8425477;28;20223;-64
2023/05/21 20:52:07;;;;;;;9.93;7.05;;;;;20.30;96089.00;;;;8441746;27;20286;-66
2023/05/21 20:56:14;;;;;;;12.55;7.40;;;;;20.20;96094.00;;;;8415500;28;20239;-63